LFCK/DCM METAR and TAF weather

Enter ICAO airport designator
Station Type Date Time Source
LFCK METAR 2023/02/05 13:30 UTC NOAA

LFCK 051330Z AUTO 31010KT 9999 BKN010 OVC015 07/05 Q1036 NOSIG


Station Type Date Time Source
LFCK Decoded METAR 2023/02/05 13:30 UTC NOAA

Station name not available
Feb 05, 2023 - 08:30 AM EST / 2023.02.05 1330 UTC
Wind: from the NW (310 degrees) at 12 MPH (10 KT):0
Visibility: greater than 7 mile(s):0
Sky conditions: overcast
Temperature: 44 F (7 C)
Dew Point: 41 F (5 C)
Relative Humidity: 87%
Pressure (altimeter): 30.59 in. Hg (1036 hPa)
ob: LFCK 051330Z AUTO 31010KT 9999 BKN010 OVC015 07/05 Q1036 NOSIG
cycle: 13

Station Type Date Time Source
LFCK TAF UTC NOAA

Error!

Example: see airport list